createdAt,value
2023-04-12T00:00:33.722Z,62.02
2023-04-12T00:01:33.708Z,62.02
2023-04-12T00:02:33.869Z,62.02
2023-04-12T00:03:33.811Z,62.02
2023-04-12T00:04:33.874Z,62.12
2023-04-12T00:05:33.661Z,62.02
2023-04-12T00:06:33.689Z,62.02
2023-04-12T00:07:33.646Z,62.02
2023-04-12T00:08:33.787Z,62.02
2023-04-12T00:09:33.607Z,62.12
2023-04-12T00:10:33.597Z,62.12
2023-04-12T00:11:33.587Z,62.12
2023-04-12T00:12:33.570Z,62.12
2023-04-12T00:13:33.554Z,62.12
2023-04-12T00:14:33.546Z,62.12
2023-04-12T00:15:33.546Z,62.02
2023-04-12T00:16:33.556Z,62.12
2023-04-12T00:17:33.521Z,62.22
2023-04-12T00:18:33.491Z,62.22
2023-04-12T00:19:33.482Z,62.22
2023-04-12T00:20:33.466Z,62.22
2023-04-12T00:21:33.456Z,62.32
2023-04-12T00:22:33.462Z,62.22
2023-04-12T00:23:33.426Z,62.22
2023-04-12T00:24:33.415Z,62.22
2023-04-12T00:25:33.408Z,62.32
2023-04-12T00:26:33.388Z,62.22
2023-04-12T00:27:33.403Z,62.32
2023-04-12T00:28:33.362Z,62.32
2023-04-12T00:29:33.344Z,62.32
2023-04-12T00:30:33.336Z,62.32
2023-04-12T00:31:33.364Z,62.32
2023-04-12T00:32:33.397Z,62.32
2023-04-12T00:33:33.294Z,62.32
2023-04-12T00:34:33.283Z,62.32
2023-04-12T00:35:33.281Z,62.32
2023-04-12T00:36:33.271Z,62.32
2023-04-12T00:37:33.243Z,62.43
2023-04-12T00:38:33.254Z,62.32
2023-04-12T00:39:33.228Z,62.32
2023-04-12T00:40:33.241Z,62.32
2023-04-12T00:41:33.189Z,62.43
2023-04-12T00:42:33.176Z,62.43
2023-04-12T00:43:33.163Z,62.43
2023-04-12T00:44:33.150Z,62.43
2023-04-12T00:45:33.155Z,62.43
2023-04-12T00:46:33.212Z,62.43
2023-04-12T00:47:33.150Z,62.43
2023-04-12T00:48:33.103Z,62.43
2023-04-12T00:49:33.092Z,62.43
2023-04-12T00:50:33.075Z,62.43
2023-04-12T00:51:33.061Z,62.43
2023-04-12T00:52:33.047Z,62.43
2023-04-12T00:53:33.034Z,62.32
2023-04-12T00:54:33.052Z,62.43
2023-04-12T00:55:33.019Z,62.43
2023-04-12T00:56:32.997Z,62.32
2023-04-12T00:57:32.981Z,62.32
2023-04-12T00:58:32.972Z,62.32
2023-04-12T00:59:32.956Z,62.32
2023-04-12T01:00:32.947Z,62.32
2023-04-12T01:01:32.931Z,62.32
2023-04-12T01:02:33.041Z,62.32
2023-04-12T01:03:33.018Z,62.32
2023-04-12T01:04:32.892Z,62.32
2023-04-12T01:05:32.876Z,62.32
2023-04-12T01:06:32.863Z,62.32
2023-04-12T01:07:32.848Z,62.32
2023-04-12T01:08:32.843Z,62.32
2023-04-12T01:09:32.824Z,62.32
2023-04-12T01:10:32.835Z,62.32
2023-04-12T01:11:32.813Z,62.32
2023-04-12T01:12:32.792Z,62.32
2023-04-12T01:13:32.770Z,62.32
2023-04-12T01:14:32.764Z,62.32
2023-04-12T01:15:32.743Z,62.32
2023-04-12T01:16:32.767Z,62.32
2023-04-12T01:17:32.787Z,62.43
2023-04-12T01:18:32.703Z,62.43
2023-04-12T01:19:38.701Z,62.32
2023-04-12T01:21:07.640Z,62.32
2023-04-12T01:22:07.625Z,62.32
2023-04-12T01:23:07.614Z,62.32
2023-04-12T01:24:07.591Z,62.43
2023-04-12T01:25:07.585Z,62.32
2023-04-12T01:26:07.625Z,62.32
2023-04-12T01:27:07.565Z,62.32
2023-04-12T01:28:07.535Z,62.43
2023-04-12T01:29:07.526Z,62.43
2023-04-12T01:30:07.510Z,62.43
2023-04-12T01:31:07.567Z,62.43
2023-04-12T01:32:07.491Z,62.43
2023-04-12T01:33:07.491Z,62.53
2023-04-12T01:34:07.460Z,62.53
2023-04-12T01:35:07.447Z,62.53
2023-04-12T01:36:07.715Z,62.53
2023-04-12T01:37:07.422Z,62.53
2023-04-12T01:38:07.410Z,62.53
2023-04-12T01:39:07.396Z,62.53
2023-04-12T01:40:07.379Z,62.53
2023-04-12T01:41:07.373Z,62.63
2023-04-12T01:42:07.379Z,62.63
2023-04-12T01:43:07.347Z,62.53
2023-04-12T01:44:07.330Z,62.53
2023-04-12T01:45:07.318Z,62.53
2023-04-12T01:46:07.343Z,62.53
2023-04-12T01:47:07.292Z,62.53
2023-04-12T01:48:07.385Z,62.53
2023-04-12T01:49:07.290Z,62.53
2023-04-12T01:50:07.250Z,62.53
2023-04-12T01:51:07.244Z,62.53
2023-04-12T01:52:07.225Z,62.43
2023-04-12T01:53:07.222Z,62.43
2023-04-12T01:54:07.200Z,62.43
2023-04-12T01:55:07.185Z,62.43
2023-04-12T01:56:07.179Z,62.53
2023-04-12T01:57:07.164Z,62.43
2023-04-12T01:58:07.175Z,62.53
2023-04-12T01:59:07.132Z,62.53
2023-04-12T02:00:07.128Z,62.53
2023-04-12T02:01:07.178Z,62.53
2023-04-12T02:02:07.134Z,62.53
2023-04-12T02:03:07.236Z,62.53
2023-04-12T02:04:07.161Z,62.43
2023-04-12T02:05:07.058Z,62.53
2023-04-12T02:06:07.044Z,62.53
2023-04-12T02:07:07.075Z,62.53
2023-04-12T02:08:07.015Z,62.43
2023-04-12T02:09:07.005Z,62.53
2023-04-12T02:10:06.998Z,62.53
2023-04-12T02:11:06.977Z,62.53
2023-04-12T02:12:06.969Z,62.43
2023-04-12T02:13:06.965Z,62.53
2023-04-12T02:14:06.961Z,62.53
2023-04-12T02:15:06.927Z,62.63
2023-04-12T02:16:06.921Z,62.53
2023-04-12T02:17:06.895Z,62.53
2023-04-12T02:18:06.994Z,62.63
2023-04-12T02:19:06.869Z,62.63
2023-04-12T02:20:06.857Z,62.63
2023-04-12T02:21:06.843Z,62.63
2023-04-12T02:22:06.832Z,62.63
2023-04-12T02:23:06.822Z,62.66
2023-04-12T02:24:06.809Z,62.63
2023-04-12T02:25:06.793Z,62.63
2023-04-12T02:26:06.781Z,62.63
2023-04-12T02:27:06.763Z,62.63
2023-04-12T02:28:06.753Z,62.53
2023-04-12T02:29:06.738Z,62.63
2023-04-12T02:30:06.750Z,62.63
2023-04-12T02:31:06.778Z,62.73
2023-04-12T02:32:06.710Z,62.63
2023-04-12T02:33:06.707Z,62.63
2023-04-12T02:34:06.681Z,62.73
2023-04-12T02:35:06.658Z,62.73
2023-04-12T02:36:06.649Z,62.73
2023-04-12T02:37:12.790Z,62.76
2023-04-12T02:38:06.622Z,62.76
2023-04-12T02:39:06.603Z,62.73
2023-04-12T02:40:06.596Z,62.76
2023-04-12T02:41:06.583Z,62.66
2023-04-12T02:42:06.572Z,62.66
2023-04-12T02:43:06.572Z,62.66
2023-04-12T02:44:06.543Z,62.66
2023-04-12T02:45:06.528Z,62.66
2023-04-12T02:46:06.578Z,62.66
2023-04-12T02:47:06.500Z,62.63
2023-04-12T02:48:06.551Z,62.66
2023-04-12T02:49:06.478Z,62.63
2023-04-12T02:50:06.463Z,62.66
2023-04-12T02:51:06.449Z,62.66
2023-04-12T02:52:06.439Z,62.66
2023-04-12T02:53:06.429Z,62.76
2023-04-12T02:54:06.421Z,62.66
2023-04-12T02:55:06.394Z,62.66
2023-04-12T02:56:06.756Z,62.53
2023-04-12T02:57:06.369Z,62.66
2023-04-12T02:58:06.357Z,62.66
2023-04-12T02:59:06.343Z,62.66
2023-04-12T03:00:06.339Z,62.66
2023-04-12T03:01:06.348Z,62.66
2023-04-12T03:02:06.383Z,62.66
2023-04-12T03:03:06.429Z,62.66
2023-04-12T03:04:06.355Z,62.66
2023-04-12T03:05:06.263Z,62.66
2023-04-12T03:06:06.253Z,62.66
2023-04-12T03:07:06.237Z,62.66
2023-04-12T03:08:06.226Z,62.66
2023-04-12T03:09:06.210Z,62.66
2023-04-12T03:10:06.204Z,62.66
2023-04-12T03:11:06.194Z,62.66
2023-04-12T03:12:06.173Z,62.66
2023-04-12T03:13:06.157Z,62.66
2023-04-12T03:14:06.146Z,62.66
2023-04-12T03:15:06.133Z,62.66
2023-04-12T03:16:06.179Z,62.56
2023-04-12T03:17:06.106Z,62.53
2023-04-12T03:18:06.151Z,62.56
2023-04-12T03:19:06.082Z,62.66
2023-04-12T03:20:06.070Z,62.66
2023-04-12T03:21:06.066Z,62.76
2023-04-12T03:22:06.049Z,62.76
2023-04-12T03:23:06.031Z,62.66
2023-04-12T03:24:06.014Z,62.66
2023-04-12T03:25:06.005Z,62.66
2023-04-12T03:26:05.998Z,62.66
2023-04-12T03:27:05.972Z,62.66
2023-04-12T03:28:05.961Z,62.66
2023-04-12T03:29:05.961Z,62.66
2023-04-12T03:30:05.935Z,62.66
2023-04-12T03:31:06.060Z,62.76
2023-04-12T03:32:05.906Z,62.66
2023-04-12T03:33:05.920Z,62.66
2023-04-12T03:34:05.908Z,62.66
2023-04-12T03:35:05.867Z,62.66
2023-04-12T03:36:05.856Z,62.66
2023-04-12T03:37:05.945Z,62.76
2023-04-12T03:38:05.832Z,62.76
2023-04-12T03:39:05.818Z,62.76
2023-04-12T03:40:05.799Z,62.76
2023-04-12T03:41:05.785Z,62.76
2023-04-12T03:42:05.787Z,62.76
2023-04-12T03:43:05.759Z,62.76
2023-04-12T03:44:05.749Z,62.76
2023-04-12T03:45:05.733Z,62.76
2023-04-12T03:46:05.745Z,62.76
2023-04-12T03:47:05.706Z,62.76
2023-04-12T03:48:05.774Z,62.76
2023-04-12T03:49:05.682Z,62.76
2023-04-12T03:50:11.446Z,62.76
2023-04-12T03:51:07.810Z,62.76
2023-04-12T03:52:05.641Z,62.76
2023-04-12T03:53:05.637Z,62.76
2023-04-12T03:54:05.617Z,62.76
2023-04-12T03:55:05.611Z,62.76
2023-04-12T03:56:05.592Z,62.76
2023-04-12T03:57:05.578Z,62.76
2023-04-12T03:58:05.564Z,62.76
2023-04-12T03:59:05.554Z,62.76
2023-04-12T04:00:05.548Z,62.76
2023-04-12T04:01:05.523Z,62.76
2023-04-12T04:02:05.562Z,62.76
2023-04-12T04:03:05.603Z,62.76
2023-04-12T04:04:05.684Z,62.76
2023-04-12T04:05:05.492Z,62.76
2023-04-12T04:06:05.497Z,62.76
2023-04-12T04:07:05.446Z,62.76
2023-04-12T04:08:05.434Z,62.76
2023-04-12T04:09:05.420Z,62.76
2023-04-12T04:10:05.409Z,62.76
2023-04-12T04:11:06.199Z,62.76
2023-04-12T04:12:05.384Z,62.76
2023-04-12T04:13:05.374Z,62.76
2023-04-12T04:14:05.366Z,62.76
2023-04-12T04:15:05.341Z,62.76
2023-04-12T04:16:05.392Z,62.76
2023-04-12T04:17:05.312Z,62.76
2023-04-12T04:18:05.339Z,62.76
2023-04-12T04:19:05.289Z,62.76
2023-04-12T04:20:05.280Z,62.76
2023-04-12T04:21:05.271Z,62.87
2023-04-12T04:22:05.285Z,62.76
2023-04-12T04:23:05.238Z,62.87
2023-04-12T04:24:05.224Z,62.87
2023-04-12T04:25:05.212Z,62.87
2023-04-12T04:26:05.198Z,62.87
2023-04-12T04:27:05.186Z,62.87
2023-04-12T04:28:05.173Z,62.87
2023-04-12T04:29:05.162Z,62.87
2023-04-12T04:30:05.155Z,62.87
2023-04-12T04:31:05.133Z,62.87
2023-04-12T04:32:05.189Z,62.87
2023-04-12T04:33:05.145Z,62.87
2023-04-12T04:34:05.098Z,62.87
2023-04-12T04:35:05.082Z,62.76
2023-04-12T04:36:05.183Z,62.76
2023-04-12T04:37:05.056Z,62.76
2023-04-12T04:38:05.067Z,62.76
2023-04-12T04:39:05.033Z,62.76
2023-04-12T04:40:05.022Z,62.76
2023-04-12T04:41:05.000Z,62.76
2023-04-12T04:42:04.991Z,62.76
2023-04-12T04:43:06.455Z,62.76
2023-04-12T04:44:04.974Z,62.76
2023-04-12T04:45:04.956Z,62.76
2023-04-12T04:46:04.963Z,62.76
2023-04-12T04:47:04.937Z,62.76
2023-04-12T04:48:04.939Z,62.76
2023-04-12T04:49:04.901Z,62.76
2023-04-12T04:50:04.893Z,62.76
2023-04-12T04:51:04.872Z,62.76
2023-04-12T04:52:04.876Z,62.76
2023-04-12T04:53:04.849Z,62.76
2023-04-12T04:54:04.873Z,62.76
2023-04-12T04:55:06.918Z,62.76
2023-04-12T04:56:04.810Z,62.76
2023-04-12T04:57:04.804Z,62.76
2023-04-12T04:58:04.810Z,62.76
2023-04-12T04:59:04.773Z,62.87
2023-04-12T05:00:04.756Z,62.87
2023-04-12T05:01:04.749Z,62.87
2023-04-12T05:02:04.750Z,62.87
2023-04-12T05:03:04.809Z,62.76
2023-04-12T05:04:04.821Z,62.76
2023-04-12T05:05:04.686Z,62.76
2023-04-12T05:06:04.680Z,62.76
2023-04-12T05:07:04.660Z,62.87
2023-04-12T05:08:04.656Z,62.87
2023-04-12T05:09:04.632Z,62.87
2023-04-12T05:10:04.655Z,62.87
2023-04-12T05:11:04.606Z,62.76
2023-04-12T05:12:04.595Z,62.76
2023-04-12T05:13:04.581Z,62.76
2023-04-12T05:14:04.567Z,62.76
2023-04-12T05:15:11.783Z,62.76
2023-04-12T05:16:05.579Z,62.76
2023-04-12T05:17:04.620Z,62.76
2023-04-12T05:18:04.561Z,62.76
2023-04-12T05:19:04.500Z,62.76
2023-04-12T05:20:04.512Z,62.76
2023-04-12T05:21:04.477Z,62.66
2023-04-12T05:22:04.467Z,62.66
2023-04-12T05:23:04.447Z,62.76
2023-04-12T05:24:04.442Z,62.76
2023-04-12T05:25:04.420Z,62.76
2023-04-12T05:26:04.445Z,62.76
2023-04-12T05:27:04.406Z,62.76
2023-04-12T05:28:04.384Z,62.76
2023-04-12T05:29:04.369Z,62.87
2023-04-12T05:30:04.408Z,62.76
2023-04-12T05:31:04.437Z,62.76
2023-04-12T05:32:04.334Z,62.76
2023-04-12T05:33:04.395Z,62.73
2023-04-12T05:34:04.316Z,62.73
2023-04-12T05:35:04.289Z,62.63
2023-04-12T05:36:04.376Z,62.63
2023-04-12T05:37:04.263Z,62.63
2023-04-12T05:38:04.254Z,62.73
2023-04-12T05:39:04.237Z,62.73
2023-04-12T05:40:04.229Z,62.73
2023-04-12T05:41:04.219Z,62.63
2023-04-12T05:42:04.256Z,62.73
2023-04-12T05:43:04.187Z,62.73
2023-04-12T05:44:04.177Z,62.73
2023-04-12T05:45:04.158Z,62.63
2023-04-12T05:46:04.191Z,62.63
2023-04-12T05:47:04.140Z,62.63
2023-04-12T05:48:04.161Z,62.63
2023-04-12T05:49:04.108Z,62.53
2023-04-12T05:50:06.396Z,62.53
2023-04-12T05:51:04.081Z,62.53
2023-04-12T05:52:04.089Z,62.53
2023-04-12T05:53:04.057Z,62.43
2023-04-12T05:54:04.042Z,62.43
2023-04-12T05:55:04.033Z,62.32
2023-04-12T05:56:04.022Z,62.43
2023-04-12T05:57:04.004Z,62.43
2023-04-12T05:58:04.017Z,62.43
2023-04-12T05:59:03.977Z,62.43
2023-04-12T06:00:03.967Z,62.43
2023-04-12T06:01:03.952Z,62.32
2023-04-12T06:02:04.006Z,62.43
2023-04-12T06:03:04.074Z,62.43
2023-04-12T06:04:04.128Z,62.22
2023-04-12T06:05:04.162Z,62.22
2023-04-12T06:06:03.901Z,62.12
2023-04-12T06:07:03.874Z,62.02
2023-04-12T06:08:03.864Z,62.12
2023-04-12T06:09:03.851Z,62.12
2023-04-12T06:10:03.850Z,62.12
2023-04-12T06:11:03.827Z,62.02
2023-04-12T06:12:03.811Z,62.12
2023-04-12T06:13:03.806Z,62.22
2023-04-12T06:14:03.807Z,62.22
2023-04-12T06:15:03.783Z,62.22
2023-04-12T06:16:03.863Z,62.12
2023-04-12T06:17:03.752Z,62.02
2023-04-12T06:18:03.773Z,62.12
2023-04-12T06:19:03.720Z,62.12
2023-04-12T06:20:03.708Z,62.02
2023-04-12T06:21:03.694Z,62.02
2023-04-12T06:22:03.687Z,62.02
2023-04-12T06:23:03.668Z,61.92
2023-04-12T06:24:03.669Z,61.92
2023-04-12T06:25:03.648Z,62.02
2023-04-12T06:26:03.631Z,62.02
2023-04-12T06:27:03.617Z,61.81
2023-04-12T06:28:03.602Z,61.92
2023-04-12T06:29:03.591Z,61.92
2023-04-12T06:30:03.609Z,61.81
2023-04-12T06:31:03.571Z,61.71
2023-04-12T06:32:03.548Z,61.81
2023-04-12T06:33:03.564Z,61.92
2023-04-12T06:34:03.521Z,61.92
2023-04-12T06:35:03.755Z,61.92
2023-04-12T06:36:03.551Z,61.81
2023-04-12T06:37:03.491Z,61.92
2023-04-12T06:38:03.465Z,61.92
2023-04-12T06:39:03.463Z,61.92
2023-04-12T06:40:03.445Z,61.81
2023-04-12T06:41:03.427Z,61.81
2023-04-12T06:42:03.410Z,61.81
2023-04-12T06:43:03.401Z,61.81
2023-04-12T06:44:03.385Z,61.92
2023-04-12T06:45:03.377Z,61.92
2023-04-12T06:46:03.398Z,61.92
2023-04-12T06:47:03.368Z,61.88
2023-04-12T06:48:03.386Z,61.88
2023-04-12T06:49:03.341Z,61.88
2023-04-12T06:50:03.305Z,61.88
2023-04-12T06:51:03.294Z,61.92
2023-04-12T06:52:03.294Z,61.99
2023-04-12T06:53:03.283Z,61.99
2023-04-12T06:54:03.254Z,62.02
2023-04-12T06:55:03.239Z,62.02
2023-04-12T06:56:03.227Z,62.02
2023-04-12T06:57:03.216Z,62.02
2023-04-12T06:58:03.204Z,62.12
2023-04-12T06:59:03.224Z,61.99
2023-04-12T07:00:03.259Z,62.02
2023-04-12T07:01:03.260Z,62.02
2023-04-12T07:02:03.178Z,62.02
2023-04-12T07:03:03.232Z,61.99
2023-04-12T07:04:03.378Z,62.02
2023-04-12T07:05:03.114Z,62.09
2023-04-12T07:06:07.655Z,62.02
2023-04-12T07:07:04.130Z,62.02
2023-04-12T07:08:03.073Z,62.02
2023-04-12T07:09:03.062Z,61.99
2023-04-12T07:10:03.050Z,61.99
2023-04-12T07:11:14.602Z,61.99
2023-04-12T07:12:04.078Z,61.92
2023-04-12T07:13:03.058Z,61.88
2023-04-12T07:14:02.995Z,61.81
2023-04-12T07:15:02.990Z,61.78
2023-04-12T07:16:02.976Z,61.78
2023-04-12T07:17:02.958Z,61.81
2023-04-12T07:18:03.051Z,61.81
2023-04-12T07:19:03.015Z,61.81
2023-04-12T07:20:02.917Z,61.68
2023-04-12T07:21:02.906Z,61.68
2023-04-12T07:22:02.905Z,61.68
2023-04-12T07:23:02.879Z,61.68
2023-04-12T07:24:02.884Z,61.68
2023-04-12T07:25:02.868Z,61.71
2023-04-12T07:26:02.841Z,61.71
2023-04-12T07:27:02.860Z,61.68
2023-04-12T07:28:02.812Z,61.60
2023-04-12T07:29:02.811Z,61.68
2023-04-12T07:30:02.787Z,61.71
2023-04-12T07:31:02.778Z,61.68
2023-04-12T07:32:02.760Z,61.71
2023-04-12T07:33:16.379Z,61.71
2023-04-12T07:34:03.999Z,61.68
2023-04-12T07:35:02.721Z,61.78
2023-04-12T07:36:02.770Z,61.78
2023-04-12T07:37:02.696Z,61.68
2023-04-12T07:38:02.686Z,61.68
2023-04-12T07:39:02.670Z,61.68
2023-04-12T07:40:02.770Z,61.78
2023-04-12T07:41:02.645Z,61.78
2023-04-12T07:42:02.632Z,61.78
2023-04-12T07:43:02.619Z,61.88
2023-04-12T07:44:02.609Z,61.88
2023-04-12T07:45:02.603Z,61.88
2023-04-12T07:46:02.632Z,61.88
2023-04-12T07:47:02.567Z,61.88
2023-04-12T07:48:02.564Z,61.88
2023-04-12T07:49:02.540Z,61.88
2023-04-12T07:50:02.713Z,61.99
2023-04-12T07:51:02.525Z,61.99
2023-04-12T07:52:02.532Z,61.88
2023-04-12T07:53:02.499Z,61.99
2023-04-12T07:54:02.479Z,61.99
2023-04-12T07:55:02.462Z,61.99
2023-04-12T07:56:02.456Z,61.99
2023-04-12T07:57:02.435Z,61.99
2023-04-12T07:58:02.425Z,61.99
2023-04-12T07:59:02.420Z,61.99
2023-04-12T08:00:02.479Z,61.99
2023-04-12T08:01:02.385Z,61.99
2023-04-12T08:02:02.555Z,61.99
2023-04-12T08:03:02.565Z,61.99
2023-04-12T08:04:03.088Z,61.99
2023-04-12T08:05:02.342Z,61.99
2023-04-12T08:06:02.601Z,61.99
2023-04-12T08:07:02.320Z,61.99
2023-04-12T08:08:02.291Z,61.99
2023-04-12T08:09:02.305Z,61.99
2023-04-12T08:10:02.271Z,61.99
2023-04-12T08:11:02.254Z,61.99
2023-04-12T08:12:02.248Z,61.99
2023-04-12T08:13:02.231Z,61.88
2023-04-12T08:14:02.221Z,61.88
2023-04-12T08:15:02.204Z,61.88
2023-04-12T08:16:02.258Z,61.88
2023-04-12T08:17:02.176Z,61.88
2023-04-12T08:18:02.275Z,61.88
2023-04-12T08:19:02.176Z,61.99
2023-04-12T08:20:02.209Z,61.88
2023-04-12T08:21:02.132Z,61.88
2023-04-12T08:22:02.131Z,61.88
2023-04-12T08:23:02.099Z,61.88
2023-04-12T08:24:02.091Z,61.88
2023-04-12T08:25:02.072Z,61.78
2023-04-12T08:26:02.057Z,61.78
2023-04-12T08:27:02.046Z,61.78
2023-04-12T08:28:02.046Z,61.88
2023-04-12T08:29:02.045Z,61.78
2023-04-12T08:30:02.010Z,61.78
2023-04-12T08:31:02.053Z,61.88
2023-04-12T08:32:01.979Z,61.88
2023-04-12T08:33:02.029Z,61.88
2023-04-12T08:34:01.953Z,61.88
2023-04-12T08:35:01.946Z,61.99
2023-04-12T08:36:01.966Z,61.99
2023-04-12T08:37:01.929Z,61.88
2023-04-12T08:38:02.042Z,61.99
2023-04-12T08:39:01.898Z,61.88
2023-04-12T08:40:01.928Z,61.99
2023-04-12T08:41:01.863Z,61.99
2023-04-12T08:42:01.890Z,61.99
2023-04-12T08:43:01.835Z,61.99
2023-04-12T08:44:01.887Z,61.99
2023-04-12T08:45:01.819Z,61.99
2023-04-12T08:46:01.894Z,62.09
2023-04-12T08:47:01.962Z,62.09
2023-04-12T08:48:01.809Z,62.09
2023-04-12T08:49:01.834Z,62.09
2023-04-12T08:50:01.908Z,62.09
2023-04-12T08:51:01.737Z,62.09
2023-04-12T08:52:01.778Z,62.19
2023-04-12T08:53:01.753Z,62.19
2023-04-12T08:54:01.991Z,62.29
2023-04-12T08:55:01.712Z,62.29
2023-04-12T08:56:01.808Z,62.29
2023-04-12T08:57:01.658Z,62.40
2023-04-12T08:58:01.659Z,62.40
2023-04-12T08:59:01.656Z,62.40
2023-04-12T09:00:01.656Z,62.50
2023-04-12T09:01:01.635Z,62.50
2023-04-12T09:02:01.680Z,62.60
2023-04-12T09:03:01.763Z,62.50
2023-04-12T09:04:01.898Z,62.60
2023-04-12T09:05:01.984Z,62.60
2023-04-12T09:06:01.547Z,62.60
2023-04-12T09:07:01.535Z,62.60
2023-04-12T09:08:01.527Z,62.60
2023-04-12T09:09:01.613Z,62.60
2023-04-12T09:10:01.622Z,62.60
2023-04-12T09:11:01.472Z,62.70
2023-04-12T09:12:01.459Z,62.70
2023-04-12T09:13:01.483Z,62.81
2023-04-12T09:14:01.761Z,62.91
2023-04-12T09:15:01.421Z,62.91
2023-04-12T09:16:01.413Z,62.91
2023-04-12T09:17:01.514Z,63.01
2023-04-12T09:18:01.423Z,63.01
2023-04-12T09:19:07.400Z,63.22
2023-04-12T09:20:01.356Z,63.22
2023-04-12T09:21:01.350Z,63.32
2023-04-12T09:22:01.342Z,63.42
2023-04-12T09:23:01.312Z,63.53
2023-04-12T09:24:01.316Z,63.63
2023-04-12T09:25:01.304Z,63.63
2023-04-12T09:26:01.360Z,63.83
2023-04-12T09:27:01.275Z,63.73
2023-04-12T09:28:01.272Z,63.73
2023-04-12T09:29:01.248Z,63.73
2023-04-12T09:30:01.220Z,63.83
2023-04-12T09:31:01.259Z,63.94
2023-04-12T09:32:01.240Z,63.94
2023-04-12T09:33:01.234Z,63.94
2023-04-12T09:34:01.180Z,63.94
2023-04-12T09:35:01.157Z,63.94
2023-04-12T09:36:01.190Z,63.94
2023-04-12T09:37:01.137Z,63.94
2023-04-12T09:38:01.121Z,63.94
2023-04-12T09:39:01.115Z,63.94
2023-04-12T09:40:01.091Z,63.94
2023-04-12T09:41:01.101Z,63.94
2023-04-12T09:42:01.089Z,63.94
2023-04-12T09:43:01.065Z,63.94
2023-04-12T09:44:01.316Z,63.94
2023-04-12T09:45:01.032Z,63.94
2023-04-12T09:46:07.061Z,63.94
2023-04-12T09:47:01.120Z,64.04
2023-04-12T09:48:01.034Z,64.04
2023-04-12T09:49:00.978Z,64.04
2023-04-12T09:50:00.972Z,64.04
2023-04-12T09:51:00.974Z,64.04
2023-04-12T09:52:06.950Z,64.04
2023-04-12T09:53:00.926Z,64.04
2023-04-12T09:54:01.050Z,64.14
2023-04-12T09:55:00.924Z,64.14
2023-04-12T09:56:00.903Z,64.14
2023-04-12T09:57:00.875Z,64.14
2023-04-12T09:58:00.885Z,64.14
2023-04-12T09:59:00.852Z,64.14
2023-04-12T10:00:00.863Z,64.14
2023-04-12T10:01:00.892Z,64.04
2023-04-12T10:02:00.921Z,64.14
2023-04-12T10:03:00.947Z,64.14
2023-04-12T10:04:01.091Z,64.24
2023-04-12T10:05:01.036Z,64.24
2023-04-12T10:06:00.776Z,64.24
2023-04-12T10:07:00.742Z,64.14
2023-04-12T10:08:00.733Z,64.14
2023-04-12T10:09:00.748Z,64.14
2023-04-12T10:10:00.712Z,64.14
2023-04-12T10:11:00.692Z,64.14
2023-04-12T10:12:00.705Z,64.24
2023-04-12T10:13:00.754Z,64.24
2023-04-12T10:14:00.668Z,64.24
2023-04-12T10:15:00.663Z,64.24
2023-04-12T10:16:00.652Z,64.24
2023-04-12T10:17:00.609Z,64.24
2023-04-12T10:18:00.642Z,64.24
2023-04-12T10:19:06.595Z,64.24
2023-04-12T10:20:00.574Z,64.24
2023-04-12T10:21:00.556Z,64.31
2023-04-12T10:22:00.542Z,64.24
2023-04-12T10:23:00.528Z,64.24
2023-04-12T10:24:00.598Z,64.24
2023-04-12T10:25:00.523Z,64.24
2023-04-12T10:26:00.493Z,64.24
2023-04-12T10:27:00.483Z,64.24
2023-04-12T10:28:00.489Z,64.34
2023-04-12T10:29:00.455Z,64.34
2023-04-12T10:30:00.464Z,64.34
2023-04-12T10:31:00.506Z,64.34
2023-04-12T10:32:00.524Z,64.45
2023-04-12T10:33:00.466Z,64.45
2023-04-12T10:34:00.387Z,64.45
2023-04-12T10:35:00.386Z,64.45
2023-04-12T10:36:00.835Z,64.45
2023-04-12T10:37:00.349Z,64.45
2023-04-12T10:38:00.374Z,64.55
2023-04-12T10:39:00.424Z,64.45
2023-04-12T10:40:00.313Z,64.45
2023-04-12T10:41:00.299Z,64.55
2023-04-12T10:42:00.287Z,64.52
2023-04-12T10:43:00.286Z,64.55
2023-04-12T10:44:00.262Z,64.75
2023-04-12T10:45:01.261Z,64.86
2023-04-12T10:46:00.405Z,64.86
2023-04-12T10:47:00.270Z,64.93
2023-04-12T10:48:00.266Z,64.93
2023-04-12T10:49:00.192Z,64.83
2023-04-12T10:50:00.261Z,64.86
2023-04-12T10:51:00.168Z,64.83
2023-04-12T10:52:00.153Z,64.93
2023-04-12T10:53:00.141Z,64.93
2023-04-12T10:54:00.152Z,65.03
2023-04-12T10:55:00.171Z,64.93
2023-04-12T10:56:00.111Z,64.96
2023-04-12T10:57:00.126Z,65.06
2023-04-12T10:58:00.084Z,65.06
2023-04-12T10:59:00.438Z,65.06
2023-04-12T11:00:00.058Z,65.06
2023-04-12T11:01:00.327Z,65.16
2023-04-12T11:02:00.261Z,64.96
2023-04-12T11:03:00.221Z,64.75
2023-04-12T11:04:00.170Z,64.65
2023-04-12T11:05:00.039Z,64.65
2023-04-12T11:06:19.989Z,64.65
2023-04-12T11:07:00.001Z,64.65
2023-04-12T11:07:59.956Z,64.65
2023-04-12T11:09:00.270Z,64.75
2023-04-12T11:09:59.917Z,64.86
2023-04-12T11:10:59.975Z,64.96
2023-04-12T11:11:59.889Z,65.27
2023-04-12T11:12:59.883Z,65.58
2023-04-12T11:13:59.887Z,65.58
2023-04-12T11:15:05.856Z,65.47
2023-04-12T11:15:59.853Z,65.58
2023-04-12T11:16:59.876Z,65.58
2023-04-12T11:18:00.068Z,65.67
2023-04-12T11:19:00.058Z,65.67
2023-04-12T11:19:59.799Z,65.67
2023-04-12T11:20:59.773Z,65.78
2023-04-12T11:21:59.799Z,65.78
2023-04-12T11:22:59.777Z,65.88
2023-04-12T11:23:59.737Z,65.78
2023-04-12T11:24:59.763Z,66.19
2023-04-12T11:26:34.662Z,66.60
2023-04-12T11:27:34.644Z,66.70
2023-04-12T11:28:35.532Z,66.70
2023-04-12T11:29:34.619Z,66.70
2023-04-12T11:30:34.609Z,66.70
2023-04-12T11:31:34.645Z,67.01
2023-04-12T11:32:40.647Z,67.11
2023-04-12T11:33:34.691Z,67.21
2023-04-12T11:34:34.557Z,67.32
2023-04-12T11:35:34.540Z,67.21
2023-04-12T11:36:34.531Z,67.32
2023-04-12T11:37:34.526Z,67.42
2023-04-12T11:38:34.510Z,67.32
2023-04-12T11:39:34.491Z,67.42
2023-04-12T11:40:34.481Z,67.42
2023-04-12T11:41:34.465Z,67.32
2023-04-12T11:42:34.450Z,67.32
2023-04-12T11:43:34.439Z,67.52
2023-04-12T11:44:48.217Z,67.42
2023-04-12T11:45:35.477Z,67.42
2023-04-12T11:46:34.404Z,67.62
2023-04-12T11:47:34.422Z,67.73
2023-04-12T11:48:34.376Z,67.62
2023-04-12T11:49:34.597Z,67.52
2023-04-12T11:50:34.355Z,67.42
2023-04-12T11:51:34.333Z,67.52
2023-04-12T11:52:34.321Z,67.42
2023-04-12T11:53:34.306Z,67.21
2023-04-12T11:54:34.296Z,67.32
2023-04-12T11:55:34.281Z,67.21
2023-04-12T11:56:34.272Z,67.21
2023-04-12T11:57:34.254Z,67.21
2023-04-12T11:58:34.242Z,67.11
2023-04-12T11:59:34.233Z,67.52
2023-04-12T12:00:34.216Z,67.42
2023-04-12T12:01:34.218Z,67.21
2023-04-12T12:02:43.126Z,67.01
2023-04-12T12:03:34.337Z,67.01
2023-04-12T12:04:34.607Z,67.01
2023-04-12T12:05:34.399Z,66.80
2023-04-12T12:06:34.728Z,66.70
2023-04-12T12:07:34.185Z,66.60
2023-04-12T12:08:34.108Z,67.01
2023-04-12T12:09:34.098Z,67.42
2023-04-12T12:10:46.450Z,67.32
2023-04-12T12:11:35.127Z,67.32
2023-04-12T12:12:34.056Z,67.62
2023-04-12T12:13:34.044Z,67.62
2023-04-12T12:14:34.030Z,67.42
2023-04-12T12:15:34.022Z,67.62
2023-04-12T12:16:34.046Z,67.52
2023-04-12T12:17:34.027Z,67.32
2023-04-12T12:18:33.979Z,67.62
2023-04-12T12:19:33.973Z,67.83
2023-04-12T12:20:33.955Z,68.03
2023-04-12T12:21:33.966Z,68.24
2023-04-12T12:22:33.928Z,68.34
2023-04-12T12:23:33.912Z,68.54
2023-04-12T12:24:35.425Z,68.65
2023-04-12T12:25:33.884Z,68.54
2023-04-12T12:26:33.873Z,68.54
2023-04-12T12:27:33.952Z,68.45
2023-04-12T12:28:33.848Z,68.34
2023-04-12T12:29:33.838Z,68.24
2023-04-12T12:30:33.822Z,68.34
2023-04-12T12:31:33.867Z,68.34
2023-04-12T12:32:33.817Z,68.24
2023-04-12T12:33:45.830Z,68.24
2023-04-12T12:34:34.813Z,68.45
2023-04-12T12:35:33.773Z,68.54
2023-04-12T12:36:33.809Z,68.54
2023-04-12T12:37:33.754Z,68.54
2023-04-12T12:38:34.467Z,68.45
2023-04-12T12:39:33.712Z,68.45
2023-04-12T12:40:33.697Z,68.45
2023-04-12T12:41:33.680Z,68.51
2023-04-12T12:42:33.666Z,68.51
2023-04-12T12:43:33.653Z,68.41
2023-04-12T12:44:36.280Z,68.41
2023-04-12T12:45:33.835Z,68.31
2023-04-12T12:46:50.853Z,68.21
2023-04-12T12:47:34.731Z,68.10
2023-04-12T12:48:33.672Z,68.10
2023-04-12T12:49:33.579Z,68.51
2023-04-12T12:50:33.574Z,68.41
2023-04-12T12:51:33.549Z,68.31
2023-04-12T12:52:33.539Z,68.21
2023-04-12T12:53:33.561Z,68.00